Time;durP1;ratioP1;P1;durP2;ratioP2;P2;SDS_P1;SDS_P2;PMS_P1;PMS_P2;Temp;Humidity;BMP_temperature;BMP_pressure;BME280_temperature;BME280_humidity;BME280_pressure;Samples;Min_cycle;Max_cycle;Signal;HPM_P1;HPM_P2
2023/09/28 00:01:35;;;;;;;9.32;5.22;;;14.70;99.90;;;;;;4889294;29;20044;-76
2023/09/28 00:04:02;;;;;;;7.13;4.88;;;14.70;99.90;;;;;;4890097;29;20033;-75
2023/09/28 00:06:28;;;;;;;9.00;5.45;;;14.70;99.90;;;;;;4889693;29;20048;-75
2023/09/28 00:08:53;;;;;;;8.45;5.28;;;14.70;99.90;;;;;;4885039;29;20041;-75
2023/09/28 00:11:19;;;;;;;10.60;5.35;;;14.70;99.90;;;;;;4889474;29;20299;-75
2023/09/28 00:13:44;;;;;;;8.38;5.47;;;14.70;99.90;;;;;;4889563;29;20037;-78
2023/09/28 00:16:10;;;;;;;8.77;5.68;;;14.70;99.90;;;;;;4889997;29;20025;-76
2023/09/28 00:18:36;;;;;;;10.25;5.45;;;14.70;99.90;;;;;;4889069;29;20041;-76
2023/09/28 00:21:02;;;;;;;6.22;4.90;;;14.70;99.90;;;;;;4888683;29;20028;-76
2023/09/28 00:23:28;;;;;;;8.48;5.50;;;14.70;99.90;;;;;;4889240;29;20033;-75
2023/09/28 00:25:54;;;;;;;7.60;5.22;;;14.60;99.90;;;;;;4889387;29;20053;-75
2023/09/28 00:28:20;;;;;;;8.20;5.65;;;14.60;99.90;;;;;;4888110;29;20196;-76
2023/09/28 05:23:49;;;;;;;5.40;3.70;;;14.60;99.90;;;;;;5696684;23;20044;-75
2023/09/28 05:26:15;;;;;;;8.27;4.20;;;14.70;99.90;;;;;;4886384;29;20251;-75
2023/09/28 05:28:41;;;;;;;6.28;3.53;;;14.70;99.90;;;;;;4906519;29;20113;-76
2023/09/28 05:31:07;;;;;;;5.85;3.55;;;14.60;99.90;;;;;;4906946;29;20020;-75
2023/09/28 05:33:33;;;;;;;5.93;3.20;;;14.60;99.90;;;;;;4907239;29;20047;-75
2023/09/28 05:35:58;;;;;;;6.57;3.45;;;14.60;99.90;;;;;;4906495;29;20052;-76
2023/09/28 05:38:24;;;;;;;6.82;3.42;;;14.70;99.90;;;;;;4906660;29;20324;-76
2023/09/28 05:40:50;;;;;;;8.57;3.88;;;14.70;99.90;;;;;;4903438;29;20099;-76
2023/09/28 05:43:15;;;;;;;8.13;3.88;;;14.70;99.90;;;;;;4895323;29;20044;-75
2023/09/28 05:45:41;;;;;;;5.97;3.70;;;14.70;99.90;;;;;;4906709;29;20214;-74
2023/09/28 05:48:07;;;;;;;7.03;3.95;;;14.60;99.90;;;;;;4906589;29;20032;-75
2023/09/28 05:50:32;;;;;;;5.53;3.72;;;14.60;99.90;;;;;;4902076;29;20104;-75
2023/09/28 05:52:58;;;;;;;5.60;3.90;;;14.60;99.90;;;;;;4904531;29;20048;-75
2023/09/28 05:55:25;;;;;;;8.02;4.07;;;14.70;99.90;;;;;;4906513;29;20067;-74
2023/09/28 05:57:54;;;;;;;7.28;4.63;;;14.70;99.90;;;;;;4888896;29;20345;-76
2023/09/28 06:00:20;;;;;;;9.52;4.32;;;14.60;99.90;;;;;;4903745;29;20083;-74
2023/09/28 06:02:45;;;;;;;9.13;5.25;;;14.70;99.90;;;;;;4905934;29;20084;-75
2023/09/28 06:05:11;;;;;;;8.35;4.40;;;14.70;99.90;;;;;;4906303;29;20032;-75
2023/09/28 06:07:37;;;;;;;6.63;4.00;;;14.70;99.90;;;;;;4905859;29;20038;-73
2023/09/28 06:10:04;;;;;;;10.13;4.80;;;14.80;99.90;;;;;;4906307;29;20036;-75
2023/09/28 06:12:29;;;;;;;7.47;4.22;;;14.80;99.90;;;;;;4906572;29;20152;-74
2023/09/28 06:14:55;;;;;;;8.32;4.15;;;14.90;99.90;;;;;;4905757;29;20025;-75
2023/09/28 06:17:21;;;;;;;11.13;4.15;;;15.00;99.90;;;;;;4888130;29;20027;-75
2023/09/28 06:19:47;;;;;;;10.32;4.55;;;15.00;99.90;;;;;;4905755;29;20048;-76
2023/09/28 06:22:12;;;;;;;7.70;4.30;;;15.00;99.90;;;;;;4906415;29;20063;-74
2023/09/28 06:24:38;;;;;;;7.03;3.67;;;15.00;99.90;;;;;;4905841;29;20049;-75
2023/09/28 06:27:05;;;;;;;7.28;4.50;;;15.00;99.90;;;;;;4905368;29;20029;-74
2023/09/28 06:29:32;;;;;;;7.38;4.68;;;15.10;99.90;;;;;;4906273;29;20306;-74
2023/09/28 06:31:58;;;;;;;7.97;4.28;;;15.10;99.90;;;;;;4905861;29;20032;-76
2023/09/28 06:34:24;;;;;;;7.20;4.32;;;15.10;99.90;;;;;;4903117;29;20079;-74
2023/09/28 06:36:50;;;;;;;9.00;5.47;;;15.10;99.90;;;;;;4885071;29;20025;-76
2023/09/28 06:39:16;;;;;;;9.70;5.30;;;15.10;99.90;;;;;;4906542;29;20056;-75
2023/09/28 06:41:42;;;;;;;11.75;4.97;;;15.10;99.90;;;;;;4906778;29;20024;-77
2023/09/28 06:44:10;;;;;;;9.50;5.22;;;15.10;99.90;;;;;;4914430;29;20207;-75
2023/09/28 06:46:36;;;;;;;6.97;4.25;;;15.20;99.90;;;;;;4915704;29;20036;-75
2023/09/28 06:49:05;;;;;;;9.25;4.53;;;15.20;99.90;;;;;;4919239;29;20048;-76
2023/09/28 06:51:31;;;;;;;;;;;15.30;99.90;;;;;;4913163;29;20024;-75
2023/09/28 06:53:58;;;;;;;8.50;4.35;;;15.30;99.90;;;;;;4906674;29;19908;-76
2023/09/28 06:56:26;;;;;;;7.57;4.45;;;15.30;99.90;;;;;;4906277;29;20033;-76
2023/09/28 06:58:52;;;;;;;7.80;4.35;;;15.30;99.90;;;;;;4900835;29;20032;-76
2023/09/28 07:01:18;;;;;;;7.95;4.40;;;15.50;99.90;;;;;;4884379;29;20033;-77
2023/09/28 07:03:45;;;;;;;6.43;4.35;;;15.60;99.90;;;;;;4889554;29;20050;-75
2023/09/28 07:06:12;;;;;;;10.68;4.38;;;15.70;99.90;;;;;;4905793;29;20025;-76
2023/09/28 07:08:38;;;;;;;9.40;5.07;;;15.90;99.90;;;;;;4901693;29;20040;-75
2023/09/28 07:11:04;;;;;;;8.73;5.00;;;16.00;99.90;;;;;;4905441;29;20195;-75
2023/09/28 07:13:30;;;;;;;11.02;4.95;;;16.10;99.90;;;;;;4889197;29;20188;-75
2023/09/28 07:15:58;;;;;;;13.80;4.85;;;16.30;99.90;;;;;;4904833;29;20033;-75
2023/09/28 07:18:25;;;;;;;8.15;5.03;;;16.50;99.90;;;;;;4905964;29;20032;-76
2023/09/28 07:20:51;;;;;;;9.02;4.78;;;16.50;99.90;;;;;;4905382;29;20039;-77
2023/09/28 07:23:17;;;;;;;6.75;4.53;;;16.70;99.90;;;;;;4873517;29;20111;-75
2023/09/28 07:25:42;;;;;;;10.27;5.40;;;16.80;99.90;;;;;;4894673;29;20053;-75
2023/09/28 07:28:08;;;;;;;10.63;5.03;;;16.70;99.90;;;;;;4905346;29;20063;-76
2023/09/28 07:30:35;;;;;;;8.20;4.93;;;16.70;99.90;;;;;;4873378;29;20040;-76
2023/09/28 07:33:01;;;;;;;8.38;5.07;;;16.60;99.90;;;;;;4905089;29;20032;-76
2023/09/28 07:35:27;;;;;;;7.30;4.97;;;16.50;99.90;;;;;;4905511;29;20206;-77
2023/09/28 07:37:52;;;;;;;9.02;5.10;;;16.60;99.90;;;;;;4905952;29;20084;-75
2023/09/28 07:40:24;;;;;;;7.47;5.05;;;16.70;99.90;;;;;;4908718;29;20322;-75
2023/09/28 07:42:50;;;;;;;9.45;4.85;;;16.90;99.90;;;;;;4908273;29;20028;-75
2023/09/28 07:45:18;;;;;;;9.90;4.93;;;17.00;99.90;;;;;;4909126;29;20096;-76
2023/09/28 07:47:44;;;;;;;8.73;4.57;;;17.10;99.90;;;;;;4908479;29;20070;-77
2023/09/28 07:50:14;;;;;;;11.13;5.10;;;17.20;99.80;;;;;;4891723;29;20328;-76
2023/09/28 07:52:43;;;;;;;7.50;4.43;;;17.20;99.50;;;;;;4908733;29;20044;-76
2023/09/28 07:55:10;;;;;;;8.93;4.78;;;17.30;99.40;;;;;;4908229;29;20060;-76
2023/09/28 07:57:37;;;;;;;11.97;4.73;;;17.50;99.20;;;;;;4888071;29;20032;-75
2023/09/28 08:00:06;;;;;;;10.93;5.00;;;17.50;98.90;;;;;;4902111;29;20060;-75
2023/09/28 08:02:37;;;;;;;9.55;4.82;;;17.50;98.50;;;;;;4908868;29;20096;-75
2023/09/28 08:05:03;;;;;;;10.85;4.40;;;17.70;98.20;;;;;;4889996;29;20041;-76
2023/09/28 08:07:32;;;;;;;8.38;4.53;;;17.90;98.40;;;;;;4905734;29;20427;-75
2023/09/28 08:09:58;;;;;;;9.20;4.30;;;18.10;97.30;;;;;;4907526;29;20016;-75
2023/09/28 08:12:24;;;;;;;10.75;4.45;;;18.20;97.10;;;;;;4888152;29;20063;-75
2023/09/28 08:14:50;;;;;;;10.15;5.03;;;18.30;96.90;;;;;;4904846;29;20068;-76
2023/09/28 08:17:15;;;;;;;8.27;4.68;;;18.50;96.60;;;;;;4908507;29;20016;-75
2023/09/28 08:19:42;;;;;;;9.20;4.72;;;18.60;96.10;;;;;;4908308;29;20033;-75
2023/09/28 08:22:10;;;;;;;9.13;5.13;;;18.70;95.80;;;;;;4907477;29;20084;-76
2023/09/28 08:24:36;;;;;;;9.50;4.60;;;18.80;95.50;;;;;;4908405;29;20041;-74
2023/09/28 08:27:04;;;;;;;9.85;4.45;;;18.90;95.20;;;;;;4907690;29;20037;-77
2023/09/28 08:29:30;;;;;;;9.10;4.65;;;18.90;94.80;;;;;;4908297;29;20033;-75
2023/09/28 08:31:57;;;;;;;9.20;4.95;;;19.00;94.80;;;;;;4907310;29;20040;-76
2023/09/28 08:34:23;;;;;;;14.18;4.30;;;19.00;94.60;;;;;;4904576;29;20025;-76
2023/09/28 08:36:50;;;;;;;6.93;3.78;;;19.10;94.40;;;;;;4907033;29;20382;-75
2023/09/28 08:39:16;;;;;;;7.82;3.80;;;19.20;94.20;;;;;;4908480;29;20198;-75
2023/09/28 08:41:43;;;;;;;9.57;4.00;;;19.20;94.00;;;;;;4908059;29;20052;-74
2023/09/28 08:44:10;;;;;;;6.75;3.80;;;19.20;93.50;;;;;;4907463;29;20036;-76
2023/09/28 08:46:39;;;;;;;6.35;3.40;;;19.20;93.60;;;;;;4907765;29;20024;-75
2023/09/28 08:49:10;;;;;;;6.78;3.83;;;19.20;93.50;;;;;;4907044;29;20167;-75
2023/09/28 08:51:38;;;;;;;9.02;4.20;;;19.30;93.40;;;;;;4907703;29;20318;-76
2023/09/28 08:54:07;;;;;;;10.10;4.03;;;19.40;93.30;;;;;;4904442;29;20068;-75
2023/09/28 08:56:35;;;;;;;8.63;3.53;;;19.50;93.00;;;;;;4907546;29;20025;-75
2023/09/28 08:59:02;;;;;;;9.30;4.07;;;19.60;92.60;;;;;;4907002;29;20033;-76
2023/09/28 09:01:30;;;;;;;8.65;3.58;;;19.80;92.40;;;;;;4905502;29;20440;-75
2023/09/28 09:03:57;;;;;;;;;;;19.90;92.30;;;;;;4890975;29;20048;-75
2023/09/28 09:06:24;;;;;;;8.02;4.00;;;20.00;92.20;;;;;;4907144;29;19903;-75
2023/09/28 09:08:54;;;;;;;9.25;4.00;;;20.20;91.90;;;;;;4904120;29;20080;-75
2023/09/28 09:11:22;;;;;;;7.65;4.07;;;20.30;91.80;;;;;;4907456;29;20041;-75
2023/09/28 09:13:53;;;;;;;7.97;4.10;;;20.50;91.30;;;;;;4906790;29;20030;-75
2023/09/28 09:16:22;;;;;;;6.70;3.40;;;20.50;90.90;;;;;;4905952;29;20072;-75
2023/09/28 09:18:48;;;;;;;8.85;4.30;;;20.60;91.10;;;;;;4889995;29;20037;-74
2023/09/28 09:21:14;;;;;;;12.27;4.55;;;20.70;90.90;;;;;;4906767;29;20024;-74
2023/09/28 09:23:40;;;;;;;9.27;4.18;;;20.80;90.60;;;;;;4906445;29;20052;-75
2023/09/28 09:27:03;;;;;;;7.75;4.13;;;20.90;90.40;;;;;;4906479;29;20037;-78
2023/09/28 09:30:07;;;;;;;9.10;4.10;;;21.10;90.30;;;;;;4890533;29;20051;-75
2023/09/28 09:32:35;;;;;;;11.45;3.90;;;21.20;89.80;;;;;;4907114;29;20096;-76
2023/09/28 09:35:02;;;;;;;9.00;3.67;;;21.30;89.60;;;;;;4906352;29;20045;-76
2023/09/28 09:37:27;;;;;;;9.13;3.55;;;21.50;88.70;;;;;;4889937;29;20070;-77
2023/09/28 09:40:10;;;;;;;7.45;3.58;;;21.60;88.60;;;;;;4889764;29;20024;-76
2023/09/28 09:42:36;;;;;;;8.25;4.28;;;21.70;88.00;;;;;;4903179;29;20063;-74
2023/09/28 09:45:03;;;;;;;9.57;3.63;;;21.70;87.90;;;;;;4889514;29;20310;-76
2023/09/28 09:47:29;;;;;;;10.57;3.77;;;21.90;87.60;;;;;;4906680;29;20055;-76
2023/09/28 09:49:56;;;;;;;31.40;5.80;;;22.00;87.30;;;;;;4905873;29;20314;-77
2023/09/28 09:52:25;;;;;;;13.45;4.05;;;22.10;87.00;;;;;;4906986;29;20227;-75
2023/09/28 09:54:51;;;;;;;7.72;4.40;;;22.20;87.20;;;;;;4905817;29;20020;-77
2023/09/28 09:57:19;;;;;;;8.20;4.00;;;22.40;85.00;;;;;;4889708;29;20310;-77
2023/09/28 09:59:48;;;;;;;7.30;3.60;;;22.50;84.70;;;;;;4903464;29;20103;-75
2023/09/28 10:02:40;;;;;;;9.23;4.05;;;22.60;84.40;;;;;;4889080;29;20048;-76
2023/09/28 10:05:13;;;;;;;9.95;4.03;;;22.70;84.50;;;;;;4906157;29;20108;-76
2023/09/28 10:07:41;;;;;;;7.60;3.65;;;22.80;83.60;;;;;;4890384;29;20029;-77
2023/09/28 10:10:07;;;;;;;6.03;3.45;;;23.00;83.50;;;;;;4905564;29;20206;-77
2023/09/28 10:12:34;;;;;;;7.65;3.80;;;23.00;83.70;;;;;;4890184;29;20055;-75
2023/09/28 10:15:01;;;;;;;8.10;3.42;;;23.10;83.70;;;;;;4905060;29;20023;-76
2023/09/28 10:17:28;;;;;;;7.43;3.60;;;23.30;82.50;;;;;;4889748;29;20353;-75
2023/09/28 10:19:57;;;;;;;8.25;4.07;;;23.40;82.10;;;;;;4905862;29;20033;-76
2023/09/28 10:22:23;;;;;;;8.73;3.47;;;23.70;81.90;;;;;;4906198;29;20064;-76
2023/09/28 10:24:48;;;;;;;7.28;3.35;;;23.80;81.40;;;;;;4889496;29;20061;-76
2023/09/28 10:27:14;;;;;;;8.07;2.85;;;24.00;80.80;;;;;;4905927;29;20040;-77
2023/09/28 10:29:41;;;;;;;8.50;3.60;;;24.10;80.40;;;;;;4906186;29;20033;-76
2023/09/28 10:32:29;;;;;;;6.65;3.28;;;24.30;79.40;;;;;;4905169;29;20048;-76
2023/09/28 10:35:13;;;;;;;;;;;24.50;78.20;;;;;;4906074;29;20230;-76
2023/09/28 10:37:39;;;;;;;7.50;3.30;;;24.70;77.30;;;;;;4906076;29;19982;-76
2023/09/28 10:40:26;;;;;;;5.20;3.10;;;24.90;75.90;;;;;;4905728;29;20045;-76
2023/09/28 10:43:09;;;;;;;5.97;2.90;;;25.10;74.30;;;;;;4903973;29;20373;-77
2023/09/28 10:45:37;;;;;;;6.55;2.70;;;25.30;72.80;;;;;;4906250;29;20218;-76
2023/09/28 10:48:07;;;;;;;5.85;2.50;;;25.50;71.90;;;;;;4889339;29;20072;-77
2023/09/28 10:50:38;;;;;;;6.63;2.47;;;25.90;69.50;;;;;;4906013;29;20043;-76
2023/09/28 10:53:05;;;;;;;5.60;2.78;;;26.40;68.30;;;;;;4906024;29;20060;-76
2023/09/28 10:55:31;;;;;;;9.43;3.00;;;27.00;67.30;;;;;;4906487;29;20100;-77
2023/09/28 10:58:04;;;;;;;5.25;3.03;;;27.40;66.50;;;;;;4888546;29;20020;-75
2023/09/28 11:00:32;;;;;;;5.63;2.80;;;28.10;64.80;;;;;;4900320;29;20032;-74
2023/09/28 11:02:58;;;;;;;6.28;2.75;;;28.70;63.60;;;;;;4908941;29;20044;-76
2023/09/28 11:05:25;;;;;;;8.27;2.78;;;29.30;62.50;;;;;;4909425;29;20067;-76
2023/09/28 11:07:51;;;;;;;4.75;2.30;;;30.20;61.20;;;;;;4905734;29;20048;-76
2023/09/28 11:10:17;;;;;;;5.13;2.50;;;30.80;59.10;;;;;;4889380;29;20032;-76
2023/09/28 11:12:44;;;;;;;14.52;3.10;;;31.40;57.70;;;;;;4908109;29;20024;-77
2023/09/28 11:15:14;;;;;;;6.10;2.65;;;32.00;56.90;;;;;;4892002;29;20088;-76
2023/09/28 11:17:40;;;;;;;7.85;2.10;;;32.20;54.90;;;;;;4908883;29;20032;-76
2023/09/28 11:20:13;;;;;;;3.88;2.20;;;32.20;55.20;;;;;;4908907;29;20028;-75
2023/09/28 11:22:39;;;;;;;5.20;2.28;;;32.20;53.90;;;;;;4902742;29;20044;-76
2023/09/28 11:25:06;;;;;;;6.25;2.85;;;32.30;53.40;;;;;;4908828;29;20057;-74
2023/09/28 11:27:32;;;;;;;5.17;2.50;;;32.70;53.60;;;;;;4909249;29;20089;-73
2023/09/28 11:29:58;;;;;;;4.07;2.00;;;33.20;52.80;;;;;;4908368;29;20100;-74
2023/09/28 11:32:24;;;;;;;5.50;2.30;;;33.60;51.60;;;;;;4905596;29;20124;-76
2023/09/28 11:34:53;;;;;;;3.90;1.80;;;34.10;50.90;;;;;;4908849;29;20020;-76
2023/09/28 11:37:22;;;;;;;4.88;2.33;;;34.40;50.00;;;;;;4908202;29;20029;-76
2023/09/28 11:39:49;;;;;;;3.10;1.75;;;35.00;49.40;;;;;;4890587;29;20274;-76
2023/09/28 11:42:14;;;;;;;3.05;1.67;;;35.30;47.60;;;;;;4908611;29;20044;-75
2023/09/28 11:44:42;;;;;;;4.78;2.33;;;35.70;48.20;;;;;;4908793;29;20377;-75
2023/09/28 11:47:07;;;;;;;;;;;36.10;46.40;;;;;;4908819;29;20274;-75
2023/09/28 11:49:37;;;;;;;5.70;2.25;;;36.40;46.70;;;;;;4891896;29;19939;-75
2023/09/28 11:52:03;;;;;;;5.00;2.17;;;36.90;46.30;;;;;;4908288;29;20036;-77
2023/09/28 11:54:29;;;;;;;3.47;2.13;;;37.10;45.70;;;;;;4908482;29;20040;-75
2023/09/28 11:56:57;;;;;;;5.28;1.88;;;37.50;45.30;;;;;;4908633;29;20099;-76
2023/09/28 11:59:23;;;;;;;4.95;1.95;;;37.80;45.30;;;;;;4908319;29;20060;-75
2023/09/28 12:01:51;;;;;;;3.80;2.00;;;38.40;44.50;;;;;;4905924;29;20076;-76
2023/09/28 12:04:18;;;;;;;3.53;1.90;;;38.10;44.50;;;;;;4891848;29;20025;-77
2023/09/28 12:06:45;;;;;;;4.23;1.90;;;38.60;44.00;;;;;;4913091;29;20043;-75
2023/09/28 12:09:13;;;;;;;3.53;1.70;;;38.40;43.60;;;;;;4907888;29;20088;-74
2023/09/28 12:11:42;;;;;;;3.28;1.88;;;39.30;43.50;;;;;;4915772;29;20021;-76
2023/09/28 12:14:08;;;;;;;3.60;1.88;;;39.50;43.30;;;;;;4918496;29;20103;-76
2023/09/28 12:16:33;;;;;;;6.35;1.83;;;39.70;42.80;;;;;;4914259;29;20035;-75
2023/09/28 12:18:59;;;;;;;3.72;1.70;;;38.90;42.90;;;;;;4908488;29;20298;-75
2023/09/28 12:21:25;;;;;;;4.30;1.60;;;39.40;42.60;;;;;;4908344;29;20048;-76
2023/09/28 12:23:51;;;;;;;3.40;1.50;;;39.90;42.20;;;;;;4907144;29;20064;-75
2023/09/28 12:26:17;;;;;;;4.30;1.77;;;40.40;41.70;;;;;;4908376;29;20254;-75
2023/09/28 12:28:44;;;;;;;3.13;1.83;;;40.60;41.10;;;;;;4911021;29;20106;-75
2023/09/28 12:31:10;;;;;;;3.47;1.42;;;41.10;41.00;;;;;;4911470;29;20017;-75
2023/09/28 12:33:36;;;;;;;3.47;1.63;;;41.40;40.30;;;;;;4906152;29;20040;-75
2023/09/28 12:36:02;;;;;;;6.97;1.60;;;41.60;40.60;;;;;;4904713;29;20044;-76
2023/09/28 12:38:28;;;;;;;3.95;1.50;;;41.60;40.60;;;;;;4890632;29;20853;-76
2023/09/28 12:40:54;;;;;;;3.88;1.75;;;41.20;40.20;;;;;;4890748;29;20032;-75
2023/09/28 12:43:20;;;;;;;4.38;1.73;;;40.90;40.00;;;;;;4907736;29;20096;-75
2023/09/28 12:45:46;;;;;;;5.68;1.67;;;40.90;40.40;;;;;;4907601;29;20052;-74
2023/09/28 12:48:18;;;;;;;4.10;2.00;;;41.40;40.60;;;;;;4907332;29;20278;-75
2023/09/28 12:50:45;;;;;;;5.82;2.20;;;41.70;40.00;;;;;;4907473;29;20452;-74
2023/09/28 12:53:10;;;;;;;4.93;1.70;;;42.50;39.90;;;;;;4907231;29;20093;-74
2023/09/28 12:55:36;;;;;;;3.05;1.63;;;42.70;39.40;;;;;;4907373;29;20099;-74
2023/09/28 12:58:03;;;;;;;4.05;1.73;;;42.60;39.00;;;;;;4907261;29;20064;-74
2023/09/28 13:00:29;;;;;;;6.32;1.50;;;42.50;39.40;;;;;;4890658;29;20095;-74
2023/09/28 13:02:55;;;;;;;2.10;1.42;;;42.20;39.30;;;;;;4889524;29;20047;-74
2023/09/28 13:05:21;;;;;;;4.57;1.58;;;42.00;39.30;;;;;;4890867;29;20340;-74
2023/09/28 13:07:48;;;;;;;2.83;1.50;;;42.50;40.40;;;;;;4904091;29;20030;-74
2023/09/28 13:10:33;;;;;;;2.53;1.20;;;42.50;41.20;;;;;;4906642;29;20028;-74
2023/09/28 13:13:00;;;;;;;4.28;1.45;;;43.50;40.10;;;;;;4906881;29;20028;-74
2023/09/28 13:15:26;;;;;;;3.90;1.50;;;43.90;38.60;;;;;;4908865;29;20223;-74
2023/09/28 13:17:52;;;;;;;4.82;1.40;;;44.10;38.20;;;;;;4910947;29;20052;-75
2023/09/28 13:20:27;;;;;;;3.00;1.67;;;44.20;37.90;;;;;;4907137;29;20108;-75
2023/09/28 13:22:55;;;;;;;2.47;1.20;;;43.60;37.90;;;;;;4906536;29;20056;-75
2023/09/28 13:25:33;;;;;;;2.42;1.33;;;43.30;37.70;;;;;;4907190;29;20045;-78
2023/09/28 13:27:59;;;;;;;2.55;1.33;;;42.80;38.20;;;;;;4906354;29;20048;-76
2023/09/28 13:30:28;;;;;;;2.83;1.17;;;43.10;38.80;;;;;;4907223;29;20181;-75
2023/09/28 13:32:55;;;;;;;2.40;1.13;;;43.10;38.80;;;;;;4906385;29;20033;-77
2023/09/28 13:35:22;;;;;;;2.90;1.20;;;43.70;38.60;;;;;;4907420;29;20083;-77
2023/09/28 13:37:47;;;;;;;3.47;1.25;;;44.00;38.50;;;;;;4907025;29;20095;-75
2023/09/28 13:40:28;;;;;;;3.88;1.48;;;44.50;38.40;;;;;;4902309;29;20039;-77
2023/09/28 13:42:55;;;;;;;3.17;1.33;;;44.90;37.60;;;;;;4906160;29;20365;-75
2023/09/28 13:45:21;;;;;;;3.38;1.40;;;44.20;37.40;;;;;;4906788;29;20100;-75
2023/09/28 13:47:47;;;;;;;2.10;1.10;;;44.00;37.50;;;;;;4906948;29;20032;-75
2023/09/28 13:50:17;;;;;;;3.95;1.50;;;44.20;38.80;;;;;;4906218;29;20037;-73
2023/09/28 13:52:46;;;;;;;3.22;1.30;;;44.00;37.70;;;;;;4906922;29;20048;-75
2023/09/28 13:55:15;;;;;;;3.78;1.58;;;44.40;38.10;;;;;;4906150;29;20246;-72
2023/09/28 13:57:44;;;;;;;2.97;1.40;;;43.70;38.00;;;;;;4889481;29;20502;-73
2023/09/28 14:00:21;;;;;;;2.30;1.40;;;44.20;38.20;;;;;;4901955;29;20096;-74
2023/09/28 14:02:48;;;;;;;;;;;44.00;37.50;;;;;;4907207;29;20095;-74
2023/09/28 14:05:15;;;;;;;3.22;1.33;;;43.20;37.80;;;;;;4906253;29;19927;-74
2023/09/28 14:07:40;;;;;;;3.33;1.35;;;42.90;38.20;;;;;;4906371;29;20037;-75
2023/09/28 14:10:07;;;;;;;1.88;1.13;;;42.70;38.20;;;;;;4906348;29;20239;-74
2023/09/28 14:12:33;;;;;;;2.33;1.30;;;42.40;38.50;;;;;;4906513;29;20341;-74
2023/09/28 14:14:59;;;;;;;4.03;1.05;;;42.80;38.70;;;;;;4906041;29;20072;-74
2023/09/28 14:17:25;;;;;;;3.05;1.30;;;42.80;39.20;;;;;;4889536;29;20222;-74
2023/09/28 14:19:51;;;;;;;4.75;1.50;;;43.20;40.20;;;;;;4906176;29;20028;-74
2023/09/28 14:22:17;;;;;;;3.13;1.10;;;43.20;38.40;;;;;;4889078;29;20038;-73
2023/09/28 14:24:43;;;;;;;1.88;1.10;;;42.90;37.40;;;;;;4906783;29;20048;-74
2023/09/28 14:27:09;;;;;;;1.70;0.88;;;43.20;37.30;;;;;;4906189;29;20025;-74
2023/09/28 14:29:37;;;;;;;2.10;0.80;;;43.80;37.70;;;;;;4906327;29;20096;-73
2023/09/28 14:32:04;;;;;;;3.60;1.05;;;44.10;37.00;;;;;;4905843;29;20071;-74
2023/09/28 14:34:29;;;;;;;3.10;1.10;;;45.00;36.80;;;;;;4906681;29;20175;-74
2023/09/28 14:36:55;;;;;;;3.33;1.17;;;45.10;36.10;;;;;;4905715;29;20029;-73
2023/09/28 14:39:21;;;;;;;2.17;0.95;;;46.00;37.10;;;;;;4905735;29;20020;-74
2023/09/28 14:41:47;;;;;;;2.60;1.23;;;46.00;36.30;;;;;;4906446;29;20037;-75
2023/09/28 14:44:13;;;;;;;2.10;1.17;;;45.10;36.60;;;;;;4905386;29;20249;-74
2023/09/28 14:46:39;;;;;;;2.53;1.00;;;44.20;36.50;;;;;;4906794;29;20195;-73
2023/09/28 14:49:04;;;;;;;2.53;1.38;;;43.70;37.00;;;;;;4909569;29;20057;-74
2023/09/28 14:51:31;;;;;;;2.35;1.00;;;43.20;37.80;;;;;;4909847;29;20218;-74
2023/09/28 14:53:59;;;;;;;2.33;1.00;;;43.60;38.10;;;;;;4909143;29;20036;-74
2023/09/28 14:56:26;;;;;;;4.85;1.05;;;44.50;37.50;;;;;;4910238;29;20059;-73
2023/09/28 14:58:53;;;;;;;2.33;1.20;;;45.40;37.00;;;;;;4909845;29;20028;-73
2023/09/28 15:01:19;;;;;;;1.83;1.00;;;45.80;36.50;;;;;;4909800;29;20504;-73
2023/09/28 15:03:45;;;;;;;1.90;0.90;;;47.10;36.50;;;;;;4909990;29;20353;-74
2023/09/28 15:06:11;;;;;;;2.63;0.90;;;48.30;36.60;;;;;;4909715;29;20040;-74
2023/09/28 15:08:36;;;;;;;1.77;1.00;;;48.30;35.40;;;;;;4909938;29;20024;-74
2023/09/28 15:11:02;;;;;;;3.00;0.77;;;47.80;34.50;;;;;;4909895;29;20041;-73
2023/09/28 15:13:28;;;;;;;4.23;0.90;;;47.60;34.80;;;;;;4910057;29;20032;-73
2023/09/28 15:15:54;;;;;;;3.83;0.80;;;48.30;36.10;;;;;;4911932;29;20318;-78
2023/09/28 15:18:20;;;;;;;1.90;0.67;;;48.20;35.40;;;;;;4920594;29;20044;-75
2023/09/28 15:20:46;;;;;;;1.90;0.95;;;48.50;34.50;;;;;;4919958;29;20067;-73
2023/09/28 15:23:14;;;;;;;2.57;0.90;;;48.20;35.30;;;;;;4915840;29;20192;-76
2023/09/28 15:25:40;;;;;;;1.75;0.90;;;47.80;34.30;;;;;;4909605;29;20076;-75
2023/09/28 15:28:08;;;;;;;2.00;1.00;;;47.30;34.40;;;;;;4909417;29;20032;-76
2023/09/28 15:30:35;;;;;;;2.45;1.00;;;47.10;34.90;;;;;;4909129;29;20060;-76
2023/09/28 15:33:02;;;;;;;3.28;1.20;;;47.20;35.00;;;;;;4905564;29;20052;-76
2023/09/28 15:35:27;;;;;;;1.88;0.90;;;46.90;35.10;;;;;;4909328;29;20024;-76
2023/09/28 15:37:53;;;;;;;2.67;0.90;;;46.50;35.40;;;;;;4908618;29;20065;-76
2023/09/28 15:40:19;;;;;;;1.73;0.90;;;46.90;36.20;;;;;;4908935;29;20032;-76
2023/09/28 15:42:46;;;;;;;2.63;1.27;;;46.50;35.20;;;;;;4909096;29;20696;-75
2023/09/28 15:45:15;;;;;;;3.13;2.05;;;46.00;36.70;;;;;;4908483;29;20224;-75
2023/09/28 15:47:42;;;;;;;6.32;2.38;;;45.60;37.40;;;;;;4909300;29;20365;-75
2023/09/28 15:50:09;;;;;;;4.50;1.85;;;45.30;38.40;;;;;;4908078;29;20333;-75
2023/09/28 15:52:34;;;;;;;;;;;44.90;37.50;;;;;;4892824;29;20341;-75
2023/09/28 15:55:00;;;;;;;4.10;1.87;;;44.80;37.80;;;;;;4908146;29;19907;-75
2023/09/28 15:57:27;;;;;;;4.22;2.20;;;43.90;38.30;;;;;;4909023;29;20017;-76
2023/09/28 15:59:53;;;;;;;6.30;2.03;;;43.50;38.90;;;;;;4902703;29;20044;-77
2023/09/28 16:02:19;;;;;;;4.43;1.92;;;43.10;39.30;;;;;;4908335;29;20056;-76
2023/09/28 16:04:45;;;;;;;4.78;1.95;;;42.70;40.10;;;;;;4892342;29;20211;-76
2023/09/28 16:07:11;;;;;;;3.03;1.90;;;41.60;40.30;;;;;;4908269;29;20025;-76
2023/09/28 16:09:37;;;;;;;4.50;2.22;;;40.70;41.10;;;;;;4909159;29;20044;-76
2023/09/28 16:12:04;;;;;;;7.47;2.10;;;40.00;42.90;;;;;;4891319;29;20123;-75
2023/09/28 16:14:29;;;;;;;3.38;2.15;;;39.70;42.50;;;;;;4908686;29;20298;-75
2023/09/28 16:16:55;;;;;;;4.75;2.00;;;38.70;42.90;;;;;;4907963;29;20032;-75
2023/09/28 16:19:21;;;;;;;3.53;1.83;;;37.70;43.50;;;;;;4908219;29;20036;-75
2023/09/28 16:21:46;;;;;;;3.58;2.13;;;36.60;44.70;;;;;;4908244;29;20095;-75
2023/09/28 16:24:12;;;;;;;4.88;2.25;;;35.80;46.30;;;;;;4907533;29;20067;-75
2023/09/28 16:26:38;;;;;;;4.50;2.38;;;35.10;47.00;;;;;;4908349;29;20152;-75
2023/09/28 16:29:04;;;;;;;4.13;2.10;;;34.40;48.50;;;;;;4908324;29;20040;-75
2023/09/28 16:31:30;;;;;;;4.93;2.10;;;33.90;48.80;;;;;;4905707;29;20033;-75
2023/09/28 16:33:55;;;;;;;3.47;2.15;;;33.30;49.60;;;;;;4907736;29;20203;-75
2023/09/28 16:36:21;;;;;;;5.47;2.50;;;32.80;50.60;;;;;;4907969;29;20032;-75
2023/09/28 16:38:46;;;;;;;4.15;2.33;;;32.30;50.70;;;;;;4908181;29;20306;-75
2023/09/28 16:41:14;;;;;;;3.40;1.98;;;31.90;51.80;;;;;;4907554;29;20020;-77
2023/09/28 16:43:40;;;;;;;4.45;2.50;;;31.50;51.70;;;;;;4907640;29;20200;-76
2023/09/28 16:46:05;;;;;;;3.88;2.40;;;31.10;52.90;;;;;;4907693;29;20042;-75
2023/09/28 16:48:31;;;;;;;5.68;3.28;;;30.90;53.30;;;;;;4907998;29;20020;-75
2023/09/28 16:50:57;;;;;;;6.20;2.88;;;30.70;53.40;;;;;;4907298;29;20214;-76
2023/09/28 16:53:23;;;;;;;6.55;3.13;;;30.40;53.90;;;;;;4907384;29;20048;-76
2023/09/28 16:55:49;;;;;;;5.50;2.90;;;30.10;54.50;;;;;;4907641;29;20027;-75
2023/09/28 16:58:14;;;;;;;6.15;3.10;;;29.80;55.10;;;;;;4907082;29;20079;-75
2023/09/28 17:00:40;;;;;;;8.88;3.58;;;29.60;55.70;;;;;;4907449;29;20028;-75
2023/09/28 17:03:06;;;;;;;5.50;3.20;;;29.40;55.80;;;;;;4906987;29;20029;-76
2023/09/28 17:05:32;;;;;;;6.13;3.15;;;29.20;57.10;;;;;;4890816;29;20060;-74
2023/09/28 17:07:58;;;;;;;6.68;4.15;;;29.10;56.60;;;;;;4871015;29;20036;-75
2023/09/28 17:10:24;;;;;;;6.97;3.55;;;28.80;57.30;;;;;;4871030;29;20021;-75
2023/09/28 17:12:51;;;;;;;6.25;3.60;;;28.60;57.20;;;;;;4907512;29;20056;-74
2023/09/28 17:15:17;;;;;;;6.35;3.28;;;28.40;57.60;;;;;;4889752;29;20243;-75
2023/09/28 17:17:43;;;;;;;9.50;3.92;;;28.10;58.00;;;;;;4906930;29;20155;-75
2023/09/28 17:20:09;;;;;;;8.82;4.15;;;27.70;59.50;;;;;;4906764;29;20032;-75
2023/09/28 17:22:35;;;;;;;10.57;4.65;;;27.20;59.90;;;;;;4907046;29;20085;-75
2023/09/28 17:25:01;;;;;;;8.63;4.80;;;26.70;60.90;;;;;;4906606;29;20057;-75
2023/09/28 17:27:27;;;;;;;9.07;5.25;;;26.30;62.40;;;;;;4907192;29;20204;-75
2023/09/28 17:29:53;;;;;;;7.85;5.05;;;26.00;63.40;;;;;;4906536;29;20104;-76
2023/09/28 17:32:19;;;;;;;6.75;4.20;;;25.70;64.20;;;;;;4888645;29;20040;-75
2023/09/28 17:34:44;;;;;;;8.65;4.60;;;25.70;64.50;;;;;;4906980;29;20042;-75
2023/09/28 17:37:10;;;;;;;9.02;4.10;;;25.50;64.50;;;;;;4906156;29;20039;-76
2023/09/28 17:39:36;;;;;;;8.05;4.30;;;25.20;65.00;;;;;;4890809;29;20045;-75
2023/09/28 17:42:03;;;;;;;8.20;4.50;;;24.90;66.00;;;;;;4889665;29;20267;-76